sensor_id;sensor_type;location;lat;lon;timestamp;P1;durP1;ratioP1;P2;durP2;ratioP2
23052;SDS011;11694;-36.632;-64.318;2022-10-31T00:01:18;28.57;;;3.77;;
23052;SDS011;11694;-36.632;-64.318;2022-10-31T00:03:50;10.63;;;1.80;;
23052;SDS011;11694;-36.632;-64.318;2022-10-31T00:06:18;28.80;;;3.73;;
23052;SDS011;11694;-36.632;-64.318;2022-10-31T00:08:47;31.20;;;4.37;;
23052;SDS011;11694;-36.632;-64.318;2022-10-31T00:11:18;23.37;;;3.23;;
23052;SDS011;11694;-36.632;-64.318;2022-10-31T00:16:27;14.97;;;1.77;;
23052;SDS011;11694;-36.632;-64.318;2022-10-31T00:18:56;7.57;;;1.20;;
23052;SDS011;11694;-36.632;-64.318;2022-10-31T00:21:25;11.60;;;1.37;;
23052;SDS011;11694;-36.632;-64.318;2022-10-31T00:23:53;20.97;;;2.03;;
23052;SDS011;11694;-36.632;-64.318;2022-10-31T00:26:20;20.27;;;2.67;;
23052;SDS011;11694;-36.632;-64.318;2022-10-31T00:28:47;16.70;;;2.07;;
23052;SDS011;11694;-36.632;-64.318;2022-10-31T00:31:16;14.33;;;1.50;;
23052;SDS011;11694;-36.632;-64.318;2022-10-31T00:33:43;8.53;;;1.40;;
23052;SDS011;11694;-36.632;-64.318;2022-10-31T00:36:12;14.00;;;2.20;;
23052;SDS011;11694;-36.632;-64.318;2022-10-31T00:38:41;26.03;;;2.90;;
23052;SDS011;11694;-36.632;-64.318;2022-10-31T00:41:12;21.60;;;3.23;;
23052;SDS011;11694;-36.632;-64.318;2022-10-31T00:43:41;7.23;;;1.80;;
23052;SDS011;11694;-36.632;-64.318;2022-10-31T00:46:09;7.50;;;1.73;;
23052;SDS011;11694;-36.632;-64.318;2022-10-31T00:48:36;18.57;;;2.17;;
23052;SDS011;11694;-36.632;-64.318;2022-10-31T00:51:04;12.43;;;2.20;;
23052;SDS011;11694;-36.632;-64.318;2022-10-31T00:53:32;18.73;;;3.33;;
23052;SDS011;11694;-36.632;-64.318;2022-10-31T00:55:59;6.70;;;1.13;;
23052;SDS011;11694;-36.632;-64.318;2022-10-31T00:58:26;7.07;;;0.93;;
23052;SDS011;11694;-36.632;-64.318;2022-10-31T01:00:53;8.53;;;1.20;;
23052;SDS011;11694;-36.632;-64.318;2022-10-31T01:03:24;11.60;;;1.90;;
23052;SDS011;11694;-36.632;-64.318;2022-10-31T01:06:11;7.27;;;1.30;;
23052;SDS011;11694;-36.632;-64.318;2022-10-31T01:08:39;7.20;;;1.30;;
23052;SDS011;11694;-36.632;-64.318;2022-10-31T01:11:11;5.70;;;0.90;;
23052;SDS011;11694;-36.632;-64.318;2022-10-31T01:13:39;5.23;;;1.10;;
23052;SDS011;11694;-36.632;-64.318;2022-10-31T01:16:08;5.40;;;1.03;;
23052;SDS011;11694;-36.632;-64.318;2022-10-31T01:18:37;6.53;;;0.80;;
23052;SDS011;11694;-36.632;-64.318;2022-10-31T01:21:05;3.83;;;1.20;;
23052;SDS011;11694;-36.632;-64.318;2022-10-31T01:23:35;5.93;;;1.27;;
23052;SDS011;11694;-36.632;-64.318;2022-10-31T01:28:35;7.27;;;1.40;;
23052;SDS011;11694;-36.632;-64.318;2022-10-31T01:31:05;6.73;;;1.77;;
23052;SDS011;11694;-36.632;-64.318;2022-10-31T01:33:34;4.03;;;1.40;;
23052;SDS011;11694;-36.632;-64.318;2022-10-31T01:36:10;9.90;;;1.53;;
23052;SDS011;11694;-36.632;-64.318;2022-10-31T01:38:58;10.37;;;1.40;;
23052;SDS011;11694;-36.632;-64.318;2022-10-31T01:41:34;7.47;;;1.20;;
23052;SDS011;11694;-36.632;-64.318;2022-10-31T01:46:48;12.40;;;2.20;;
23052;SDS011;11694;-36.632;-64.318;2022-10-31T01:49:40;10.93;;;2.07;;
23052;SDS011;11694;-36.632;-64.318;2022-10-31T01:52:27;9.77;;;1.67;;
23052;SDS011;11694;-36.632;-64.318;2022-10-31T01:55:01;11.43;;;1.50;;
23052;SDS011;11694;-36.632;-64.318;2022-10-31T01:57:35;9.80;;;1.40;;
23052;SDS011;11694;-36.632;-64.318;2022-10-31T02:00:07;6.37;;;1.20;;
23052;SDS011;11694;-36.632;-64.318;2022-10-31T02:02:36;11.20;;;1.77;;
23052;SDS011;11694;-36.632;-64.318;2022-10-31T02:05:07;5.07;;;1.40;;
23052;SDS011;11694;-36.632;-64.318;2022-10-31T02:07:43;9.00;;;1.97;;
23052;SDS011;11694;-36.632;-64.318;2022-10-31T02:10:21;16.30;;;2.33;;
23052;SDS011;11694;-36.632;-64.318;2022-10-31T02:12:52;7.23;;;1.23;;
23052;SDS011;11694;-36.632;-64.318;2022-10-31T02:15:22;12.53;;;1.30;;
23052;SDS011;11694;-36.632;-64.318;2022-10-31T02:17:49;8.20;;;1.67;;
23052;SDS011;11694;-36.632;-64.318;2022-10-31T02:20:20;7.33;;;1.50;;
23052;SDS011;11694;-36.632;-64.318;2022-10-31T02:23:41;7.80;;;1.63;;
23052;SDS011;11694;-36.632;-64.318;2022-10-31T02:26:06;7.07;;;1.43;;
23052;SDS011;11694;-36.632;-64.318;2022-10-31T02:31:42;8.93;;;1.50;;
23052;SDS011;11694;-36.632;-64.318;2022-10-31T02:34:23;9.03;;;1.60;;
23052;SDS011;11694;-36.632;-64.318;2022-10-31T02:36:56;7.37;;;1.37;;
23052;SDS011;11694;-36.632;-64.318;2022-10-31T02:39:36;7.10;;;1.20;;
23052;SDS011;11694;-36.632;-64.318;2022-10-31T02:47:27;4.70;;;0.90;;
23052;SDS011;11694;-36.632;-64.318;2022-10-31T02:50:06;5.87;;;1.37;;
23052;SDS011;11694;-36.632;-64.318;2022-10-31T02:52:51;28.20;;;3.10;;
23052;SDS011;11694;-36.632;-64.318;2022-10-31T02:57:56;4.53;;;0.90;;
23052;SDS011;11694;-36.632;-64.318;2022-10-31T03:00:45;3.97;;;0.80;;
23052;SDS011;11694;-36.632;-64.318;2022-10-31T03:06:26;2.90;;;1.00;;
23052;SDS011;11694;-36.632;-64.318;2022-10-31T03:11:45;2.47;;;0.80;;
23052;SDS011;11694;-36.632;-64.318;2022-10-31T03:14:38;3.90;;;0.60;;
23052;SDS011;11694;-36.632;-64.318;2022-10-31T03:17:50;2.93;;;0.90;;
23052;SDS011;11694;-36.632;-64.318;2022-10-31T03:20:33;4.53;;;1.03;;
23052;SDS011;11694;-36.632;-64.318;2022-10-31T03:23:24;2.77;;;0.77;;
23052;SDS011;11694;-36.632;-64.318;2022-10-31T03:25:52;3.27;;;0.90;;
23052;SDS011;11694;-36.632;-64.318;2022-10-31T03:28:23;4.37;;;0.90;;
23052;SDS011;11694;-36.632;-64.318;2022-10-31T03:31:00;3.37;;;0.73;;
23052;SDS011;11694;-36.632;-64.318;2022-10-31T03:33:30;15.13;;;1.77;;
23052;SDS011;11694;-36.632;-64.318;2022-10-31T03:36:00;7.30;;;1.10;;
23052;SDS011;11694;-36.632;-64.318;2022-10-31T03:38:31;2.63;;;0.80;;
23052;SDS011;11694;-36.632;-64.318;2022-10-31T03:41:01;6.10;;;0.77;;
23052;SDS011;11694;-36.632;-64.318;2022-10-31T03:43:33;8.17;;;1.53;;
23052;SDS011;11694;-36.632;-64.318;2022-10-31T03:46:06;5.47;;;0.80;;
23052;SDS011;11694;-36.632;-64.318;2022-10-31T03:48:33;6.77;;;1.17;;
23052;SDS011;11694;-36.632;-64.318;2022-10-31T03:53:56;2.97;;;0.80;;
23052;SDS011;11694;-36.632;-64.318;2022-10-31T03:56:37;5.40;;;0.90;;
23052;SDS011;11694;-36.632;-64.318;2022-10-31T03:59:10;10.73;;;1.30;;
23052;SDS011;11694;-36.632;-64.318;2022-10-31T04:01:45;8.03;;;1.30;;
23052;SDS011;11694;-36.632;-64.318;2022-10-31T04:04:15;17.40;;;1.90;;
23052;SDS011;11694;-36.632;-64.318;2022-10-31T04:06:42;8.93;;;0.90;;
23052;SDS011;11694;-36.632;-64.318;2022-10-31T04:09:12;2.10;;;0.70;;
23052;SDS011;11694;-36.632;-64.318;2022-10-31T04:11:42;4.37;;;0.83;;
23052;SDS011;11694;-36.632;-64.318;2022-10-31T04:14:15;8.57;;;1.40;;
23052;SDS011;11694;-36.632;-64.318;2022-10-31T04:16:42;7.70;;;1.37;;
23052;SDS011;11694;-36.632;-64.318;2022-10-31T04:19:10;4.30;;;1.00;;
23052;SDS011;11694;-36.632;-64.318;2022-10-31T04:21:38;13.67;;;2.63;;
23052;SDS011;11694;-36.632;-64.318;2022-10-31T04:24:09;16.30;;;2.80;;
23052;SDS011;11694;-36.632;-64.318;2022-10-31T04:26:36;19.30;;;2.30;;
23052;SDS011;11694;-36.632;-64.318;2022-10-31T04:29:03;5.53;;;1.33;;
23052;SDS011;11694;-36.632;-64.318;2022-10-31T04:31:30;12.80;;;1.73;;
23052;SDS011;11694;-36.632;-64.318;2022-10-31T04:33:57;9.27;;;1.87;;
23052;SDS011;11694;-36.632;-64.318;2022-10-31T04:36:25;12.87;;;1.30;;
23052;SDS011;11694;-36.632;-64.318;2022-10-31T04:38:52;18.03;;;3.53;;
23052;SDS011;11694;-36.632;-64.318;2022-10-31T04:41:19;25.97;;;7.20;;
23052;SDS011;11694;-36.632;-64.318;2022-10-31T04:43:46;13.97;;;2.13;;
23052;SDS011;11694;-36.632;-64.318;2022-10-31T04:46:13;12.90;;;3.77;;
23052;SDS011;11694;-36.632;-64.318;2022-10-31T04:48:40;6.53;;;1.93;;
23052;SDS011;11694;-36.632;-64.318;2022-10-31T04:51:07;6.83;;;1.67;;
23052;SDS011;11694;-36.632;-64.318;2022-10-31T04:53:34;6.30;;;1.13;;
23052;SDS011;11694;-36.632;-64.318;2022-10-31T04:56:02;8.17;;;1.20;;
23052;SDS011;11694;-36.632;-64.318;2022-10-31T04:58:29;14.63;;;3.77;;
23052;SDS011;11694;-36.632;-64.318;2022-10-31T05:00:56;123.13;;;16.93;;
23052;SDS011;11694;-36.632;-64.318;2022-10-31T05:03:23;47.87;;;7.27;;
23052;SDS011;11694;-36.632;-64.318;2022-10-31T05:05:50;9.63;;;1.50;;
23052;SDS011;11694;-36.632;-64.318;2022-10-31T05:08:17;21.37;;;3.20;;
23052;SDS011;11694;-36.632;-64.318;2022-10-31T05:10:44;15.17;;;2.30;;
23052;SDS011;11694;-36.632;-64.318;2022-10-31T05:13:12;6.03;;;1.00;;
23052;SDS011;11694;-36.632;-64.318;2022-10-31T05:15:40;5.87;;;1.30;;
23052;SDS011;11694;-36.632;-64.318;2022-10-31T05:18:08;5.10;;;1.20;;
23052;SDS011;11694;-36.632;-64.318;2022-10-31T05:20:35;4.53;;;1.10;;
23052;SDS011;11694;-36.632;-64.318;2022-10-31T05:23:02;8.37;;;1.23;;
23052;SDS011;11694;-36.632;-64.318;2022-10-31T05:25:29;4.93;;;1.10;;
23052;SDS011;11694;-36.632;-64.318;2022-10-31T05:27:56;5.03;;;1.23;;
23052;SDS011;11694;-36.632;-64.318;2022-10-31T05:30:25;4.57;;;1.07;;
23052;SDS011;11694;-36.632;-64.318;2022-10-31T05:32:54;4.20;;;1.20;;
23052;SDS011;11694;-36.632;-64.318;2022-10-31T05:35:23;3.93;;;0.90;;
23052;SDS011;11694;-36.632;-64.318;2022-10-31T05:37:55;3.40;;;0.87;;
23052;SDS011;11694;-36.632;-64.318;2022-10-31T05:40:23;4.00;;;0.80;;
23052;SDS011;11694;-36.632;-64.318;2022-10-31T05:42:51;4.87;;;0.90;;
23052;SDS011;11694;-36.632;-64.318;2022-10-31T05:45:20;4.80;;;1.67;;
23052;SDS011;11694;-36.632;-64.318;2022-10-31T05:47:58;6.20;;;0.80;;
23052;SDS011;11694;-36.632;-64.318;2022-10-31T05:50:27;4.97;;;0.80;;
23052;SDS011;11694;-36.632;-64.318;2022-10-31T05:52:57;3.00;;;0.70;;
23052;SDS011;11694;-36.632;-64.318;2022-10-31T05:55:25;4.43;;;0.80;;
23052;SDS011;11694;-36.632;-64.318;2022-10-31T05:57:53;7.07;;;1.23;;
23052;SDS011;11694;-36.632;-64.318;2022-10-31T06:00:21;2.47;;;0.60;;
23052;SDS011;11694;-36.632;-64.318;2022-10-31T06:02:48;4.93;;;0.70;;
23052;SDS011;11694;-36.632;-64.318;2022-10-31T06:05:23;2.43;;;0.50;;
23052;SDS011;11694;-36.632;-64.318;2022-10-31T06:07:50;1.77;;;0.70;;
23052;SDS011;11694;-36.632;-64.318;2022-10-31T06:10:17;3.53;;;0.70;;
23052;SDS011;11694;-36.632;-64.318;2022-10-31T06:12:46;2.90;;;0.80;;
23052;SDS011;11694;-36.632;-64.318;2022-10-31T06:15:13;1.83;;;0.70;;
23052;SDS011;11694;-36.632;-64.318;2022-10-31T06:17:40;7.00;;;0.70;;
23052;SDS011;11694;-36.632;-64.318;2022-10-31T06:20:08;2.37;;;0.57;;
23052;SDS011;11694;-36.632;-64.318;2022-10-31T06:22:35;5.73;;;0.70;;
23052;SDS011;11694;-36.632;-64.318;2022-10-31T06:25:02;2.63;;;0.70;;
23052;SDS011;11694;-36.632;-64.318;2022-10-31T06:27:30;1.97;;;0.60;;
23052;SDS011;11694;-36.632;-64.318;2022-10-31T06:29:57;4.37;;;0.80;;
23052;SDS011;11694;-36.632;-64.318;2022-10-31T06:32:24;4.73;;;0.80;;
23052;SDS011;11694;-36.632;-64.318;2022-10-31T06:34:51;2.03;;;0.70;;
23052;SDS011;11694;-36.632;-64.318;2022-10-31T06:37:18;5.07;;;0.60;;
23052;SDS011;11694;-36.632;-64.318;2022-10-31T06:39:45;3.23;;;0.87;;
23052;SDS011;11694;-36.632;-64.318;2022-10-31T06:42:12;4.90;;;1.50;;
23052;SDS011;11694;-36.632;-64.318;2022-10-31T06:44:41;3.30;;;1.23;;
23052;SDS011;11694;-36.632;-64.318;2022-10-31T06:47:08;6.73;;;1.23;;
23052;SDS011;11694;-36.632;-64.318;2022-10-31T06:49:35;4.20;;;1.37;;
23052;SDS011;11694;-36.632;-64.318;2022-10-31T06:52:02;8.07;;;1.90;;
23052;SDS011;11694;-36.632;-64.318;2022-10-31T06:54:30;8.67;;;1.67;;
23052;SDS011;11694;-36.632;-64.318;2022-10-31T06:56:57;7.23;;;2.00;;
23052;SDS011;11694;-36.632;-64.318;2022-10-31T06:59:24;59.27;;;5.40;;
23052;SDS011;11694;-36.632;-64.318;2022-10-31T07:01:52;10.67;;;1.97;;
23052;SDS011;11694;-36.632;-64.318;2022-10-31T07:04:19;9.07;;;1.50;;
23052;SDS011;11694;-36.632;-64.318;2022-10-31T07:06:50;4.87;;;0.90;;
23052;SDS011;11694;-36.632;-64.318;2022-10-31T07:09:18;4.90;;;1.13;;
23052;SDS011;11694;-36.632;-64.318;2022-10-31T07:11:45;3.77;;;0.60;;
23052;SDS011;11694;-36.632;-64.318;2022-10-31T07:14:12;3.30;;;0.60;;
23052;SDS011;11694;-36.632;-64.318;2022-10-31T07:16:39;3.77;;;1.03;;
23052;SDS011;11694;-36.632;-64.318;2022-10-31T07:19:06;2.50;;;0.63;;
23052;SDS011;11694;-36.632;-64.318;2022-10-31T07:21:33;1.93;;;0.80;;
23052;SDS011;11694;-36.632;-64.318;2022-10-31T07:24:01;1.90;;;0.53;;
23052;SDS011;11694;-36.632;-64.318;2022-10-31T07:26:28;3.27;;;0.50;;
23052;SDS011;11694;-36.632;-64.318;2022-10-31T07:28:55;4.03;;;0.53;;
23052;SDS011;11694;-36.632;-64.318;2022-10-31T07:31:22;2.50;;;0.70;;
23052;SDS011;11694;-36.632;-64.318;2022-10-31T07:33:52;4.20;;;1.20;;
23052;SDS011;11694;-36.632;-64.318;2022-10-31T07:36:19;7.23;;;1.13;;
23052;SDS011;11694;-36.632;-64.318;2022-10-31T07:38:46;3.80;;;1.07;;
23052;SDS011;11694;-36.632;-64.318;2022-10-31T07:41:13;4.47;;;0.77;;
23052;SDS011;11694;-36.632;-64.318;2022-10-31T07:43:40;6.17;;;0.90;;
23052;SDS011;11694;-36.632;-64.318;2022-10-31T07:46:07;3.17;;;0.50;;
23052;SDS011;11694;-36.632;-64.318;2022-10-31T07:48:34;1.83;;;0.80;;
23052;SDS011;11694;-36.632;-64.318;2022-10-31T07:51:01;7.97;;;1.63;;
23052;SDS011;11694;-36.632;-64.318;2022-10-31T07:53:28;1.17;;;0.57;;
23052;SDS011;11694;-36.632;-64.318;2022-10-31T07:55:55;2.23;;;0.83;;
23052;SDS011;11694;-36.632;-64.318;2022-10-31T07:58:22;2.23;;;0.83;;
23052;SDS011;11694;-36.632;-64.318;2022-10-31T08:00:50;1.63;;;0.60;;
23052;SDS011;11694;-36.632;-64.318;2022-10-31T08:03:18;8.77;;;2.43;;
23052;SDS011;11694;-36.632;-64.318;2022-10-31T08:05:46;31.47;;;11.20;;
23052;SDS011;11694;-36.632;-64.318;2022-10-31T08:08:14;48.07;;;15.23;;
23052;SDS011;11694;-36.632;-64.318;2022-10-31T08:10:41;23.03;;;8.17;;
23052;SDS011;11694;-36.632;-64.318;2022-10-31T08:13:09;16.60;;;7.97;;
23052;SDS011;11694;-36.632;-64.318;2022-10-31T08:15:38;25.77;;;10.40;;
23052;SDS011;11694;-36.632;-64.318;2022-10-31T08:18:16;29.90;;;11.83;;
23052;SDS011;11694;-36.632;-64.318;2022-10-31T08:20:43;29.03;;;12.77;;
23052;SDS011;11694;-36.632;-64.318;2022-10-31T08:23:11;39.77;;;19.27;;
23052;SDS011;11694;-36.632;-64.318;2022-10-31T08:25:39;43.27;;;19.47;;
23052;SDS011;11694;-36.632;-64.318;2022-10-31T08:28:08;26.83;;;14.00;;
23052;SDS011;11694;-36.632;-64.318;2022-10-31T08:30:37;19.53;;;9.37;;
23052;SDS011;11694;-36.632;-64.318;2022-10-31T08:33:06;35.43;;;6.10;;
23052;SDS011;11694;-36.632;-64.318;2022-10-31T08:35:37;8.27;;;2.47;;
23052;SDS011;11694;-36.632;-64.318;2022-10-31T08:38:04;14.87;;;2.50;;
23052;SDS011;11694;-36.632;-64.318;2022-10-31T08:40:34;5.10;;;1.83;;
23052;SDS011;11694;-36.632;-64.318;2022-10-31T08:43:02;5.77;;;1.17;;
23052;SDS011;11694;-36.632;-64.318;2022-10-31T08:45:31;4.37;;;0.90;;
23052;SDS011;11694;-36.632;-64.318;2022-10-31T08:48:00;21.60;;;2.53;;
23052;SDS011;11694;-36.632;-64.318;2022-10-31T08:50:29;11.27;;;1.43;;
23052;SDS011;11694;-36.632;-64.318;2022-10-31T08:53:02;8.53;;;1.90;;
23052;SDS011;11694;-36.632;-64.318;2022-10-31T08:55:34;24.83;;;4.13;;
23052;SDS011;11694;-36.632;-64.318;2022-10-31T08:58:02;32.93;;;4.00;;
23052;SDS011;11694;-36.632;-64.318;2022-10-31T09:00:31;20.37;;;2.47;;
23052;SDS011;11694;-36.632;-64.318;2022-10-31T09:03:01;7.30;;;1.13;;
23052;SDS011;11694;-36.632;-64.318;2022-10-31T09:05:30;10.60;;;1.83;;
23052;SDS011;11694;-36.632;-64.318;2022-10-31T09:07:58;15.63;;;2.57;;
23052;SDS011;11694;-36.632;-64.318;2022-10-31T09:10:27;44.40;;;4.03;;
23052;SDS011;11694;-36.632;-64.318;2022-10-31T09:12:55;66.50;;;7.63;;
23052;SDS011;11694;-36.632;-64.318;2022-10-31T09:15:23;44.93;;;5.67;;
23052;SDS011;11694;-36.632;-64.318;2022-10-31T09:17:51;16.13;;;2.13;;
23052;SDS011;11694;-36.632;-64.318;2022-10-31T09:20:19;22.23;;;2.97;;
23052;SDS011;11694;-36.632;-64.318;2022-10-31T09:22:46;83.20;;;8.33;;
23052;SDS011;11694;-36.632;-64.318;2022-10-31T09:25:13;60.17;;;8.17;;
23052;SDS011;11694;-36.632;-64.318;2022-10-31T09:27:40;92.33;;;11.20;;
23052;SDS011;11694;-36.632;-64.318;2022-10-31T09:30:07;45.27;;;6.47;;
23052;SDS011;11694;-36.632;-64.318;2022-10-31T09:32:35;79.57;;;11.23;;
23052;SDS011;11694;-36.632;-64.318;2022-10-31T09:35:02;152.20;;;21.77;;
23052;SDS011;11694;-36.632;-64.318;2022-10-31T09:37:29;77.87;;;13.47;;
23052;SDS011;11694;-36.632;-64.318;2022-10-31T09:39:56;105.90;;;16.73;;
23052;SDS011;11694;-36.632;-64.318;2022-10-31T09:45:23;195.37;;;27.03;;
23052;SDS011;11694;-36.632;-64.318;2022-10-31T09:56:14;155.00;;;20.87;;
23052;SDS011;11694;-36.632;-64.318;2022-10-31T09:58:48;191.20;;;24.97;;
23052;SDS011;11694;-36.632;-64.318;2022-10-31T10:01:33;172.73;;;25.60;;
23052;SDS011;11694;-36.632;-64.318;2022-10-31T10:04:03;169.13;;;26.37;;
23052;SDS011;11694;-36.632;-64.318;2022-10-31T10:06:38;121.10;;;19.97;;
23052;SDS011;11694;-36.632;-64.318;2022-10-31T10:09:10;140.63;;;23.67;;
23052;SDS011;11694;-36.632;-64.318;2022-10-31T10:20:04;97.13;;;13.87;;
23052;SDS011;11694;-36.632;-64.318;2022-10-31T10:23:11;47.80;;;8.33;;
23052;SDS011;11694;-36.632;-64.318;2022-10-31T10:26:02;79.97;;;13.27;;
23052;SDS011;11694;-36.632;-64.318;2022-10-31T10:28:54;73.50;;;11.93;;
23052;SDS011;11694;-36.632;-64.318;2022-10-31T10:31:29;38.07;;;7.07;;
23052;SDS011;11694;-36.632;-64.318;2022-10-31T10:34:10;29.00;;;5.90;;
23052;SDS011;11694;-36.632;-64.318;2022-10-31T10:41:49;20.10;;;3.00;;
23052;SDS011;11694;-36.632;-64.318;2022-10-31T10:44:39;14.20;;;2.20;;
23052;SDS011;11694;-36.632;-64.318;2022-10-31T10:47:29;19.63;;;2.70;;
23052;SDS011;11694;-36.632;-64.318;2022-10-31T10:50:11;35.53;;;3.77;;
23052;SDS011;11694;-36.632;-64.318;2022-10-31T10:55:40;6.60;;;0.93;;
23052;SDS011;11694;-36.632;-64.318;2022-10-31T10:58:17;10.50;;;1.43;;
23052;SDS011;11694;-36.632;-64.318;2022-10-31T11:00:44;2.63;;;0.70;;
23052;SDS011;11694;-36.632;-64.318;2022-10-31T11:03:13;4.23;;;0.90;;
23052;SDS011;11694;-36.632;-64.318;2022-10-31T11:08:22;10.77;;;1.70;;
23052;SDS011;11694;-36.632;-64.318;2022-10-31T11:13:37;7.70;;;0.93;;
23052;SDS011;11694;-36.632;-64.318;2022-10-31T11:16:27;7.03;;;1.10;;
23052;SDS011;11694;-36.632;-64.318;2022-10-31T11:21:53;2.70;;;0.80;;
23052;SDS011;11694;-36.632;-64.318;2022-10-31T11:24:35;11.13;;;1.40;;
23052;SDS011;11694;-36.632;-64.318;2022-10-31T11:29:45;6.93;;;1.27;;
23052;SDS011;11694;-36.632;-64.318;2022-10-31T11:32:24;4.00;;;0.93;;
23052;SDS011;11694;-36.632;-64.318;2022-10-31T11:34:54;8.83;;;0.90;;
23052;SDS011;11694;-36.632;-64.318;2022-10-31T11:37:27;2.97;;;0.80;;
23052;SDS011;11694;-36.632;-64.318;2022-10-31T11:39:59;3.47;;;0.80;;
23052;SDS011;11694;-36.632;-64.318;2022-10-31T11:42:34;7.70;;;1.13;;
23052;SDS011;11694;-36.632;-64.318;2022-10-31T11:45:16;2.43;;;0.70;;
23052;SDS011;11694;-36.632;-64.318;2022-10-31T11:47:46;9.83;;;0.83;;
23052;SDS011;11694;-36.632;-64.318;2022-10-31T11:50:20;3.60;;;0.80;;
23052;SDS011;11694;-36.632;-64.318;2022-10-31T11:52:51;5.30;;;1.00;;
23052;SDS011;11694;-36.632;-64.318;2022-10-31T11:55:37;8.43;;;1.10;;
23052;SDS011;11694;-36.632;-64.318;2022-10-31T11:58:24;5.57;;;0.93;;
23052;SDS011;11694;-36.632;-64.318;2022-10-31T12:00:53;3.77;;;1.20;;
23052;SDS011;11694;-36.632;-64.318;2022-10-31T12:06:20;9.63;;;0.97;;
23052;SDS011;11694;-36.632;-64.318;2022-10-31T12:08:51;3.07;;;0.67;;
23052;SDS011;11694;-36.632;-64.318;2022-10-31T12:19:40;3.80;;;0.70;;
23052;SDS011;11694;-36.632;-64.318;2022-10-31T12:22:36;3.73;;;0.60;;
23052;SDS011;11694;-36.632;-64.318;2022-10-31T12:28:36;6.73;;;0.70;;
23052;SDS011;11694;-36.632;-64.318;2022-10-31T12:53:52;8.97;;;0.90;;
23052;SDS011;11694;-36.632;-64.318;2022-10-31T13:04:48;8.17;;;1.73;;
23052;SDS011;11694;-36.632;-64.318;2022-10-31T13:07:23;5.57;;;0.90;;
23052;SDS011;11694;-36.632;-64.318;2022-10-31T13:10:34;7.53;;;1.07;;
23052;SDS011;11694;-36.632;-64.318;2022-10-31T13:15:52;3.57;;;0.83;;
23052;SDS011;11694;-36.632;-64.318;2022-10-31T13:18:57;7.47;;;0.80;;
23052;SDS011;11694;-36.632;-64.318;2022-10-31T13:27:22;5.70;;;1.10;;
23052;SDS011;11694;-36.632;-64.318;2022-10-31T13:30:03;4.27;;;0.70;;
23052;SDS011;11694;-36.632;-64.318;2022-10-31T13:32:42;9.57;;;1.30;;
23052;SDS011;11694;-36.632;-64.318;2022-10-31T13:38:08;2.53;;;0.40;;
23052;SDS011;11694;-36.632;-64.318;2022-10-31T13:48:59;1.83;;;0.57;;
23052;SDS011;11694;-36.632;-64.318;2022-10-31T13:51:28;10.57;;;1.00;;
23052;SDS011;11694;-36.632;-64.318;2022-10-31T13:54:01;9.13;;;0.90;;
23052;SDS011;11694;-36.632;-64.318;2022-10-31T13:56:50;10.53;;;1.00;;
23052;SDS011;11694;-36.632;-64.318;2022-10-31T13:59:19;2.00;;;0.60;;
23052;SDS011;11694;-36.632;-64.318;2022-10-31T14:01:55;9.63;;;0.60;;
23052;SDS011;11694;-36.632;-64.318;2022-10-31T14:04:37;7.77;;;0.90;;
23052;SDS011;11694;-36.632;-64.318;2022-10-31T14:07:13;48.70;;;5.13;;
23052;SDS011;11694;-36.632;-64.318;2022-10-31T14:15:19;2.53;;;0.70;;
23052;SDS011;11694;-36.632;-64.318;2022-10-31T14:18:02;1.40;;;0.80;;
23052;SDS011;11694;-36.632;-64.318;2022-10-31T14:23:12;6.57;;;1.10;;
23052;SDS011;11694;-36.632;-64.318;2022-10-31T14:28:46;3.05;;;0.50;;
23052;SDS011;11694;-36.632;-64.318;2022-10-31T14:31:28;18.55;;;1.90;;
23052;SDS011;11694;-36.632;-64.318;2022-10-31T14:45:49;5.47;;;0.88;;
23052;SDS011;11694;-36.632;-64.318;2022-10-31T14:51:35;0.53;;;0.40;;
23052;SDS011;11694;-36.632;-64.318;2022-10-31T14:54:35;9.18;;;0.68;;
23052;SDS011;11694;-36.632;-64.318;2022-10-31T14:57:06;6.65;;;0.90;;
23052;SDS011;11694;-36.632;-64.318;2022-10-31T14:59:42;18.17;;;0.98;;
23052;SDS011;11694;-36.632;-64.318;2022-10-31T15:05:08;9.90;;;1.13;;
23052;SDS011;11694;-36.632;-64.318;2022-10-31T15:07:48;5.90;;;0.65;;
23052;SDS011;11694;-36.632;-64.318;2022-10-31T15:10:24;4.47;;;0.53;;
23052;SDS011;11694;-36.632;-64.318;2022-10-31T15:13:10;7.70;;;1.00;;
23052;SDS011;11694;-36.632;-64.318;2022-10-31T15:15:46;15.48;;;1.90;;
23052;SDS011;11694;-36.632;-64.318;2022-10-31T15:18:16;4.38;;;0.52;;
23052;SDS011;11694;-36.632;-64.318;2022-10-31T15:20:48;5.13;;;1.33;;
23052;SDS011;11694;-36.632;-64.318;2022-10-31T15:23:23;21.65;;;1.88;;
23052;SDS011;11694;-36.632;-64.318;2022-10-31T15:26:04;19.23;;;1.77;;
23052;SDS011;11694;-36.632;-64.318;2022-10-31T15:28:31;10.23;;;1.10;;
23052;SDS011;11694;-36.632;-64.318;2022-10-31T15:30:59;8.57;;;0.83;;
23052;SDS011;11694;-36.632;-64.318;2022-10-31T15:33:29;2.35;;;0.60;;
23052;SDS011;11694;-36.632;-64.318;2022-10-31T15:36:05;11.98;;;1.67;;
23052;SDS011;11694;-36.632;-64.318;2022-10-31T15:38:44;13.55;;;2.35;;
23052;SDS011;11694;-36.632;-64.318;2022-10-31T15:44:15;5.45;;;0.50;;
23052;SDS011;11694;-36.632;-64.318;2022-10-31T15:46:52;3.47;;;1.00;;
23052;SDS011;11694;-36.632;-64.318;2022-10-31T15:52:09;4.47;;;0.80;;
23052;SDS011;11694;-36.632;-64.318;2022-10-31T15:54:47;8.88;;;1.08;;
23052;SDS011;11694;-36.632;-64.318;2022-10-31T15:57:16;5.43;;;1.02;;
23052;SDS011;11694;-36.632;-64.318;2022-10-31T15:59:47;6.38;;;0.98;;
23052;SDS011;11694;-36.632;-64.318;2022-10-31T16:02:19;9.35;;;1.67;;
23052;SDS011;11694;-36.632;-64.318;2022-10-31T16:05:35;3.75;;;0.90;;
23052;SDS011;11694;-36.632;-64.318;2022-10-31T16:07:49;4.72;;;1.20;;
23052;SDS011;11694;-36.632;-64.318;2022-10-31T16:10:22;4.55;;;1.20;;
23052;SDS011;11694;-36.632;-64.318;2022-10-31T16:12:53;6.72;;;1.05;;
23052;SDS011;11694;-36.632;-64.318;2022-10-31T16:15:21;8.73;;;1.10;;
23052;SDS011;11694;-36.632;-64.318;2022-10-31T16:17:49;6.25;;;1.42;;
23052;SDS011;11694;-36.632;-64.318;2022-10-31T16:20:22;4.47;;;0.80;;
23052;SDS011;11694;-36.632;-64.318;2022-10-31T16:22:52;8.73;;;0.90;;
23052;SDS011;11694;-36.632;-64.318;2022-10-31T16:25:25;8.27;;;1.40;;
23052;SDS011;11694;-36.632;-64.318;2022-10-31T16:27:58;12.40;;;2.15;;
23052;SDS011;11694;-36.632;-64.318;2022-10-31T16:33:05;11.27;;;1.38;;
23052;SDS011;11694;-36.632;-64.318;2022-10-31T16:35:51;7.38;;;0.82;;
23052;SDS011;11694;-36.632;-64.318;2022-10-31T16:38:19;10.40;;;0.90;;
23052;SDS011;11694;-36.632;-64.318;2022-10-31T16:40:46;5.03;;;0.98;;
23052;SDS011;11694;-36.632;-64.318;2022-10-31T16:43:15;4.50;;;0.73;;
23052;SDS011;11694;-36.632;-64.318;2022-10-31T16:45:47;7.57;;;0.80;;
23052;SDS011;11694;-36.632;-64.318;2022-10-31T16:51:10;46.30;;;5.22;;
23052;SDS011;11694;-36.632;-64.318;2022-10-31T16:53:37;8.55;;;1.77;;
23052;SDS011;11694;-36.632;-64.318;2022-10-31T16:56:05;6.93;;;1.30;;
23052;SDS011;11694;-36.632;-64.318;2022-10-31T16:58:52;6.00;;;0.90;;
23052;SDS011;11694;-36.632;-64.318;2022-10-31T17:01:19;7.18;;;0.90;;
23052;SDS011;11694;-36.632;-64.318;2022-10-31T17:03:47;2.80;;;0.85;;
23052;SDS011;11694;-36.632;-64.318;2022-10-31T17:06:14;2.38;;;0.63;;
23052;SDS011;11694;-36.632;-64.318;2022-10-31T17:08:41;6.65;;;0.60;;
23052;SDS011;11694;-36.632;-64.318;2022-10-31T17:11:13;16.65;;;1.80;;
23052;SDS011;11694;-36.632;-64.318;2022-10-31T17:13:46;7.15;;;0.95;;
23052;SDS011;11694;-36.632;-64.318;2022-10-31T17:16:13;14.77;;;1.67;;
23052;SDS011;11694;-36.632;-64.318;2022-10-31T17:18:40;2.22;;;0.70;;
23052;SDS011;11694;-36.632;-64.318;2022-10-31T17:21:15;13.35;;;1.63;;
23052;SDS011;11694;-36.632;-64.318;2022-10-31T17:23:52;0.77;;;0.47;;